Independence of the Seas — C6WW4 — position and weather

sailwx.info

Track history (hours):
 
Tides and Currents Weather Stations Pressure Air Temp Water Temp Dewpoint Dewpoint Depression Visibility Wind Speed Wind Dir Waves Ship Positions

Independence of the Seas

Last reported at 2019-Jun-16 21:00 UTC. Time now 2019-Jun-17 18:39 UTC.
Position N 43°48' W 009°42'.

Length 339 m; draft 9 m.

Type: Passenger vessel. MMSI: 309374000.

Wind from 050 at 3 knots

Barometer 1020.5 mb
Air temperature 17.0 ° C
Dewpoint 11.5 ° C
Water temperature 16.0 ° C

Date/timePositionNaut miles runAvg speedWind from/ knotsBaromVisibWave heightAir tempDewpointWater temp
2019-Jun-16 21:00N 43°48' W 009°42'31420.9 050 / 31020.5 17.011.516.0
2019-Jun-16 06:00N 48°24' W 006°06'6521.6 210 / 231015.0 5.4 15.111.816.0
2019-Jun-16 03:00N 49°12' W 005°00'4820.3 210 / 281014.310.8 13.511.2
2019-Jun-16 00:38N 49°35' W 003°56'321.4
2019-Jun-16 00:31N 49°37' W 003°52'1121.8
2019-Jun-16 00:00N 49°42' W 003°37'1122.3
2019-Jun-15 23:30N 49°47' W 003°23'1122.4
2019-Jun-15 23:00N 49°53' W 003°08'1122.2
2019-Jun-15 22:30N 49°58' W 002°52'1121.9
2019-Jun-15 22:01N 50°02' W 002°36'1321.0
2019-Jun-15 21:23N 50°07' W 002°18'820.1
2019-Jun-15 21:01N 50°11' W 002°07'9516.8
2019-Jun-15 21:00N 50°12' W 001°54'3 7.2 190 / 171015.2 12.910.413.0
2019-Jun-15 20:30N 50°15' W 001°54'918.8
2019-Jun-15 20:00N 50°20' W 001°41'918.4
2019-Jun-15 19:30N 50°24' W 001°28'918.0
2019-Jun-15 19:01N 50°28' W 001°16'917.3
2019-Jun-15 18:30N 50°33' W 001°04'816.0
2019-Jun-15 18:00N 50°40' W 000°58'510.3
2019-Jun-15 17:30N 50°44' W 001°03'1019.2
2019-Jun-15 17:00N 50°47' W 001°17'4 8.8
2019-Jun-15 16:30N 50°51' W 001°20'4 8.3
2019-Jun-15 16:00N 50°53' W 001°25'1 0.8
2019-Jun-15 15:25N 50°54' W 001°25'0 0.0
2019-Jun-15 14:58N 50°54' W 001°25'0 0.0
2019-Jun-15 13:31N 50°54' W 001°25'0 0.0
2019-Jun-15 13:28N 50°54' W 001°25'0 0.0
2019-Jun-15 12:37N 50°54' W 001°25'0 0.0
2019-Jun-15 12:13N 50°54' W 001°25'0 0.0
2019-Jun-15 11:58N 50°54' W 001°25'0 0.0
2019-Jun-15 10:52N 50°54' W 001°25'0 0.0
2019-Jun-15 10:25N 50°54' W 001°25'0 0.0
2019-Jun-15 09:34N 50°54' W 001°25'0 0.0
2019-Jun-15 08:43N 50°54' W 001°25'0 0.0
2019-Jun-15 08:07N 50°54' W 001°25'0 0.0
2019-Jun-15 07:55N 50°54' W 001°25'0 0.0
2019-Jun-15 06:58N 50°54' W 001°25'0 0.0
2019-Jun-15 06:22N 50°54' W 001°25'0 0.0
2019-Jun-15 05:58N 50°54' W 001°25'0 0.0
2019-Jun-15 05:28N 50°54' W 001°25'0 1.0
2019-Jun-15 05:00N 50°54' W 001°24'015.1 1012.327.0 16.810.917.0
2019-Jun-15 04:58N 50°54' W 001°25'0 0.0
2019-Jun-15 04:28N 50°54' W 001°25'0 0.5
2019-Jun-15 04:00N 50°54' W 001°25'3 5.6
2019-Jun-15 03:30N 50°52' W 001°22'5 9.3
2019-Jun-15 03:00N 50°48' W 001°19'611.9
2019-Jun-15 02:31N 50°46' W 001°10'816.9
2019-Jun-15 02:00N 50°42' W 000°58'713.5
2019-Jun-15 01:30N 50°35' W 000°60'713.9
2019-Jun-15 01:00N 50°31' W 001°09'713.5
2019-Jun-15 00:30N 50°28' W 001°18'15 9.9
2019-Jun-14 23:00N 50°18' W 001°36'1077.6 180 / 161012.8 15.910.713.0
2019-Jun-14 22:52N 50°21' W 001°51'613.7
2019-Jun-14 22:25N 50°19' W 001°60'1514.8
2019-Jun-14 21:25N 50°16' W 002°23'615.6
2019-Jun-14 21:00N 50°15' W 002°33'4304.1
2019-Jun-14 21:00N 50°12' W 002°30'1019.8 180 / 131012.1 15.910.513.0
2019-Jun-14 20:30N 50°14' W 002°45'816.1
2019-Jun-14 20:01N 50°11' W 002°57'816.5
2019-Jun-14 19:31N 50°10' W 003°09'816.4
2019-Jun-14 19:01N 50°05' W 003°20'816.6
2019-Jun-14 18:31N 49°60' W 003°30'816.7
2019-Jun-14 18:01N 49°54' W 003°40'816.6
2019-Jun-14 17:31N 49°49' W 003°50'816.6
2019-Jun-14 17:01N 49°44' W 003°60'816.6
2019-Jun-14 16:30N 49°38' W 004°10'916.8
2019-Jun-14 16:00N 49°33' W 004°20'5118.2
2019-Jun-14 13:12N 48°59' W 005°17'420.9
2019-Jun-14 13:00N 48°56' W 005°22'1020.8
2019-Jun-14 12:30N 48°49' W 005°34'15620.7
2019-Jun-14 05:00N 46°30' W 007°18'12120.2 230 / 81012.727.0 14.212.017.0
2019-Jun-13 23:00N 44°42' W 008°36'4019.9 280 / 101014.5 14.2 8.715.0
2019-Jun-13 21:00N 44°06' W 009°00'10318.2 310 / 71014.8 15.1 8.916.0
2019-Jun-13 15:19N 42°23' W 009°07'618.2
2019-Jun-13 14:58N 42°19' W 008°60'816.4
2019-Jun-13 14:30N 42°14' W 008°52'611.6
2019-Jun-13 14:01N 42°15' W 008°44'0 0.0
2019-Jun-13 05:48N 42°15' W 008°44'1 3.3
2019-Jun-13 05:30N 42°14' W 008°45'510.3
2019-Jun-13 05:00N 42°12' W 008°51'611.1
2019-Jun-13 04:30N 42°08' W 008°57'510.9
2019-Jun-13 04:00N 42°04' W 009°01'4264.3
2019-Jun-13 04:00N 42°00' W 009°00'7414.8 330 / 151013.210.8 13.7 7.917.0
2019-Jun-12 23:00N 40°48' W 009°24'5618.6 320 / 281014.6 14.8 9.416.0
2019-Jun-12 20:00N 39°54' W 009°42'3318.8 320 / 261014.9 15.7 9.118.0
2019-Jun-12 18:13N 39°22' W 009°53'417.6
2019-Jun-12 17:59N 39°18' W 009°53'817.6
2019-Jun-12 17:30N 39°09' W 009°52'917.1
2019-Jun-12 17:00N 39°01' W 009°52'917.2
2019-Jun-12 16:30N 38°52' W 009°52'917.0
2019-Jun-12 16:01N 38°44' W 009°52'815.5
2019-Jun-12 15:30N 38°37' W 009°47'917.7
2019-Jun-12 15:01N 38°35' W 009°36'7408.1
2019-Jun-12 15:00N 38°30' W 009°30'715.4 340 / 341012.4 18.210.018.0
2019-Jun-12 14:30N 38°36' W 009°24'816.4
2019-Jun-12 14:01N 38°41' W 009°16'612.2
2019-Jun-12 13:31N 38°42' W 009°09'1 1.8
2019-Jun-12 13:00N 38°42' W 009°08'0 0.0
2019-Jun-12 12:30N 38°42' W 009°08'0 0.0
2019-Jun-12 12:00N 38°42' W 009°08'0 0.0
2019-Jun-12 11:30N 38°42' W 009°08'0 0.0
2019-Jun-12 11:00N 38°42' W 009°08'0 0.0
2019-Jun-12 10:30N 38°42' W 009°08'0 0.0
2019-Jun-12 10:00N 38°42' W 009°08'0 0.0
2019-Jun-12 09:30N 38°42' W 009°08'0 0.0
2019-Jun-12 09:00N 38°42' W 009°08'0 0.0
2019-Jun-12 08:30N 38°42' W 009°08'0 0.0
2019-Jun-12 08:00N 38°42' W 009°08'0 0.0
2019-Jun-12 07:30N 38°42' W 009°08'0 0.0
2019-Jun-12 07:00N 38°42' W 009°08'0 0.0
2019-Jun-12 06:30N 38°42' W 009°08'0 0.0
2019-Jun-12 06:00N 38°42' W 009°08'1132.3
2019-Jun-12 06:00N 38°42' W 009°06'1 2.9 010 / 61015.710.8 15.5 8.718.9
2019-Jun-12 05:30N 38°42' W 009°08'0 0.0
2019-Jun-12 05:00N 38°42' W 009°08'0 0.0
2019-Jun-12 04:30N 38°42' W 009°08'0 0.0
2019-Jun-12 04:00N 38°42' W 009°08'0 0.0
2019-Jun-12 03:30N 38°42' W 009°08'0 0.0
2019-Jun-12 03:00N 38°42' W 009°08'0 0.0
2019-Jun-12 02:00N 38°42' W 009°08'0 0.0
2019-Jun-12 01:30N 38°42' W 009°08'0 0.0
2019-Jun-12 01:00N 38°42' W 009°08'0 0.0
2019-Jun-12 00:30N 38°42' W 009°08'0 0.0
2019-Jun-12 00:00N 38°42' W 009°08'0 0.0
2019-Jun-11 23:30N 38°42' W 009°08'0 0.0
2019-Jun-11 23:00N 38°42' W 009°08'0 0.0
2019-Jun-11 22:30N 38°42' W 009°08'0 0.0
2019-Jun-11 22:00N 38°42' W 009°08'0 0.0
2019-Jun-11 21:30N 38°42' W 009°08'0 0.0
2019-Jun-11 21:00N 38°42' W 009°08'0 0.0
2019-Jun-11 20:30N 38°42' W 009°08'0 0.0
2019-Jun-11 20:00N 38°42' W 009°08'0 0.0
2019-Jun-11 19:27N 38°42' W 009°08'0 0.0
2019-Jun-11 19:00N 38°42' W 009°08'0 0.0
2019-Jun-11 18:30N 38°42' W 009°08'0 0.0
2019-Jun-11 18:00N 38°42' W 009°08'0 0.0
2019-Jun-11 17:27N 38°42' W 009°08'0 0.0
2019-Jun-11 17:00N 38°42' W 009°08'0 0.0
2019-Jun-11 16:30N 38°42' W 009°08'0 0.0
2019-Jun-11 16:00N 38°42' W 009°08'0 0.0
2019-Jun-11 15:30N 38°42' W 009°08'0 0.0
2019-Jun-11 15:00N 38°42' W 009°08'0 0.0
2019-Jun-11 14:27N 38°42' W 009°08'0 0.0
2019-Jun-11 14:00N 38°42' W 009°08'0 0.0
2019-Jun-11 13:30N 38°42' W 009°08'0 0.0
2019-Jun-11 13:00N 38°42' W 009°08'0 0.0
2019-Jun-11 12:30N 38°42' W 009°08'0 0.0
2019-Jun-11 12:00N 38°42' W 009°08'0 0.0
2019-Jun-11 11:30N 38°42' W 009°08'0 0.0
2019-Jun-11 11:00N 38°42' W 009°08'3 5.6
2019-Jun-11 10:30N 38°41' W 009°11'612.4
2019-Jun-11 10:00N 38°40' W 009°19'816.2
2019-Jun-11 09:30N 38°34' W 009°25'1020.5
2019-Jun-11 09:00N 38°24' W 009°25'1020.7
2019-Jun-11 08:30N 38°13' W 009°25'1021.0
2019-Jun-11 08:00N 38°03' W 009°24'1121.5
2019-Jun-11 07:30N 37°52' W 009°24'1122.2
2019-Jun-11 07:00N 37°41' W 009°23'7123.5
2019-Jun-11 04:00N 36°36' W 008°48'12362.2 350 / 301013.227.0 17.612.019.0
2019-Jun-11 03:57N 36°43' W 009°01'1421.6
2019-Jun-11 03:18N 36°39' W 008°44'821.7
2019-Jun-11 02:57N 36°36' W 008°35'1021.5
2019-Jun-11 02:30N 36°33' W 008°23'1121.6
2019-Jun-11 01:59N 36°29' W 008°11'1121.8
2019-Jun-11 01:30N 36°26' W 007°58'1121.7
2019-Jun-11 01:00N 36°23' W 007°45'1121.8
2019-Jun-11 00:30N 36°20' W 007°32'1121.1
2019-Jun-11 00:00N 36°17' W 007°20'156 7.4
2019-Jun-10 03:00N 36°30' W 004°06'5010.0 280 / 301014.727.0 18.812.419.0
2019-Jun-09 22:00N 36°18' W 003°06'5 4.8 250 / 381014.3 20.014.020.0
2019-Jun-09 21:00N 36°18' W 003°00'176 9.8 250 / 331014.5 20.314.520.0
2019-Jun-09 03:00N 38°00' E 000°00'6110.1 030 / 141016.810.8 19.214.619.0
2019-Jun-08 21:00N 39°00' E 000°12'1515.2 350 / 161020.8 18.614.318.0
2019-Jun-08 20:00N 39°12' E 000°00'1911.9 010 / 171020.9 18.713.820.0
2019-Jun-08 18:23N 39°26' W 000°17'2 3.9
2019-Jun-08 17:56N 39°28' W 000°18'0 0.0
2019-Jun-08 17:29N 39°28' W 000°18'0 0.0
2019-Jun-08 16:59N 39°28' W 000°18'0 0.0
2019-Jun-08 16:29N 39°28' W 000°18'0 0.0
2019-Jun-08 15:59N 39°28' W 000°18'0 0.0
2019-Jun-08 15:29N 39°28' W 000°18'0 0.0
2019-Jun-08 14:59N 39°28' W 000°18'0 0.0
2019-Jun-08 14:29N 39°28' W 000°18'0 0.0
2019-Jun-08 13:59N 39°28' W 000°18'0 0.0
2019-Jun-08 13:29N 39°28' W 000°18'0 0.0
2019-Jun-08 12:59N 39°28' W 000°18'0 0.0
2019-Jun-08 12:29N 39°28' W 000°18'0 0.0
2019-Jun-08 11:59N 39°28' W 000°18'0 0.0
2019-Jun-08 11:29N 39°28' W 000°18'0 0.0
2019-Jun-08 10:59N 39°28' W 000°18'0 0.0
2019-Jun-08 10:29N 39°28' W 000°18'0 0.0
2019-Jun-08 09:59N 39°28' W 000°18'0 0.0
2019-Jun-08 09:29N 39°28' W 000°18'0 0.0
2019-Jun-08 08:59N 39°28' W 000°18'0 0.0
2019-Jun-08 08:29N 39°28' W 000°18'0 0.0
2019-Jun-08 07:59N 39°28' W 000°18'0 0.0
2019-Jun-08 07:29N 39°28' W 000°18'0 0.0
2019-Jun-08 06:59N 39°28' W 000°18'0 0.0
2019-Jun-08 06:29N 39°28' W 000°18'0 0.0
2019-Jun-08 05:59N 39°28' W 000°18'0 0.0
2019-Jun-08 05:26N 39°28' W 000°18'0 0.0
2019-Jun-08 04:59N 39°28' W 000°18'1 1.1
2019-Jun-08 04:30N 39°27' W 000°18'3 5.8
2019-Jun-08 04:00N 39°27' W 000°14'815.3
2019-Jun-08 03:30N 39°33' W 000°06'1019.8
2019-Jun-08 03:00N 39°36' E 000°06'10616.6 030 / 141020.810.8 19.715.519.0
2019-Jun-07 20:38N 40°52' E 001°42'219.3
2019-Jun-07 20:30N 40°54' E 001°45'1019.1
2019-Jun-07 20:00N 41°01' E 001°53'193.4
2019-Jun-07 20:00N 41°00' E 001°54'1019.9 290 / 101017.2 21.016.018.0
2019-Jun-07 19:31N 41°08' E 002°02'918.4
2019-Jun-07 19:00N 41°14' E 002°10'611.9
2019-Jun-07 18:30N 41°20' E 002°10'1 2.1
2019-Jun-07 17:58N 41°21' E 002°11'0 0.0
2019-Jun-07 17:28N 41°21' E 002°11'0 0.0
2019-Jun-07 16:58N 41°21' E 002°11'0 0.0
2019-Jun-07 16:28N 41°21' E 002°11'0 0.0
2019-Jun-07 15:58N 41°21' E 002°11'0 0.0
2019-Jun-07 15:28N 41°21' E 002°11'0 0.0
2019-Jun-07 14:58N 41°21' E 002°11'0 0.0
2019-Jun-07 14:25N 41°21' E 002°11'0 0.0
2019-Jun-07 13:58N 41°21' E 002°11'0 0.0
2019-Jun-07 13:28N 41°21' E 002°11'0 0.0
2019-Jun-07 12:58N 41°21' E 002°11'0 0.0
2019-Jun-07 12:28N 41°21' E 002°11'0 0.0
2019-Jun-07 11:58N 41°21' E 002°11'0 0.0
2019-Jun-07 11:28N 41°21' E 002°11'0 0.0
2019-Jun-07 10:58N 41°21' E 002°11'0 0.0
2019-Jun-07 10:28N 41°21' E 002°11'0 0.0
2019-Jun-07 09:58N 41°21' E 002°11'0 0.0
2019-Jun-07 09:28N 41°21' E 002°11'0 0.0
2019-Jun-07 08:58N 41°21' E 002°11'0 0.0
2019-Jun-07 08:28N 41°21' E 002°11'0 0.0
2019-Jun-07 07:58N 41°21' E 002°11'0 0.0
2019-Jun-07 07:28N 41°21' E 002°11'0 0.0
2019-Jun-07 06:58N 41°21' E 002°11'1 2.1
2019-Jun-07 06:30N 41°20' E 002°10'4 8.6
2019-Jun-07 06:01N 41°16' E 002°12'612.2
2019-Jun-07 05:31N 41°18' E 002°20'917.7
2019-Jun-07 05:01N 41°21' E 002°30'918.6
2019-Jun-07 04:31N 41°25' E 002°42'2516.6
2019-Jun-07 03:00N 41°36' E 003°12'10317.1 180 / 101012.610.8 17.215.017.0
2019-Jun-06 21:00N 42°18' E 005°18'   150 / 221015.5 16.813.617.0
Track history (hours):
 
Tides and Currents Weather Stations Pressure Air Temp Water Temp Dewpoint Dewpoint Depression Visibility Wind Speed Wind Dir Waves Ship Positions

Independence of the Seas

Last reported at 2019-Jun-16 21:00 UTC. Time now 2019-Jun-17 18:39 UTC.
Position N 43°48' W 009°42'.

Length 339 m; draft 9 m.

Type: Passenger vessel. MMSI: 309374000.

Wind from 050 at 3 knots

Barometer 1020.5 mb
Air temperature 17.0 ° C
Dewpoint 11.5 ° C
Water temperature 16.0 ° C

Date/timePositionNaut miles runAvg speedWind from/ knotsBaromVisibWave heightAir tempDewpointWater temp
2019-Jun-16 21:00N 43°48' W 009°42'31420.9 050 / 31020.5 17.011.516.0
2019-Jun-16 06:00N 48°24' W 006°06'6521.6 210 / 231015.0 5.4 15.111.816.0
2019-Jun-16 03:00N 49°12' W 005°00'4820.3 210 / 281014.310.8 13.511.2
2019-Jun-16 00:38N 49°35' W 003°56'321.4
2019-Jun-16 00:31N 49°37' W 003°52'1121.8
2019-Jun-16 00:00N 49°42' W 003°37'1122.3
2019-Jun-15 23:30N 49°47' W 003°23'1122.4
2019-Jun-15 23:00N 49°53' W 003°08'1122.2
2019-Jun-15 22:30N 49°58' W 002°52'1121.9
2019-Jun-15 22:01N 50°02' W 002°36'1321.0
2019-Jun-15 21:23N 50°07' W 002°18'820.1
2019-Jun-15 21:01N 50°11' W 002°07'9516.8
2019-Jun-15 21:00N 50°12' W 001°54'3 7.2 190 / 171015.2 12.910.413.0
2019-Jun-15 20:30N 50°15' W 001°54'918.8
2019-Jun-15 20:00N 50°20' W 001°41'918.4
2019-Jun-15 19:30N 50°24' W 001°28'918.0
2019-Jun-15 19:01N 50°28' W 001°16'917.3
2019-Jun-15 18:30N 50°33' W 001°04'816.0
2019-Jun-15 18:00N 50°40' W 000°58'510.3
2019-Jun-15 17:30N 50°44' W 001°03'1019.2
2019-Jun-15 17:00N 50°47' W 001°17'4 8.8
2019-Jun-15 16:30N 50°51' W 001°20'4 8.3
2019-Jun-15 16:00N 50°53' W 001°25'1 0.8
2019-Jun-15 15:25N 50°54' W 001°25'0 0.0
2019-Jun-15 14:58N 50°54' W 001°25'0 0.0
2019-Jun-15 13:31N 50°54' W 001°25'0 0.0
2019-Jun-15 13:28N 50°54' W 001°25'0 0.0
2019-Jun-15 12:37N 50°54' W 001°25'0 0.0
2019-Jun-15 12:13N 50°54' W 001°25'0 0.0
2019-Jun-15 11:58N 50°54' W 001°25'0 0.0
2019-Jun-15 10:52N 50°54' W 001°25'0 0.0
2019-Jun-15 10:25N 50°54' W 001°25'0 0.0
2019-Jun-15 09:34N 50°54' W 001°25'0 0.0
2019-Jun-15 08:43N 50°54' W 001°25'0 0.0
2019-Jun-15 08:07N 50°54' W 001°25'0 0.0
2019-Jun-15 07:55N 50°54' W 001°25'0 0.0
2019-Jun-15 06:58N 50°54' W 001°25'0 0.0
2019-Jun-15 06:22N 50°54' W 001°25'0 0.0
2019-Jun-15 05:58N 50°54' W 001°25'0 0.0
2019-Jun-15 05:28N 50°54' W 001°25'0 1.0
2019-Jun-15 05:00N 50°54' W 001°24'015.1 1012.327.0 16.810.917.0
2019-Jun-15 04:58N 50°54' W 001°25'0 0.0
2019-Jun-15 04:28N 50°54' W 001°25'0 0.5
2019-Jun-15 04:00N 50°54' W 001°25'3 5.6
2019-Jun-15 03:30N 50°52' W 001°22'5 9.3
2019-Jun-15 03:00N 50°48' W 001°19'611.9
2019-Jun-15 02:31N 50°46' W 001°10'816.9
2019-Jun-15 02:00N 50°42' W 000°58'713.5
2019-Jun-15 01:30N 50°35' W 000°60'713.9
2019-Jun-15 01:00N 50°31' W 001°09'713.5
2019-Jun-15 00:30N 50°28' W 001°18'15 9.9
2019-Jun-14 23:00N 50°18' W 001°36'1077.6 180 / 161012.8 15.910.713.0
2019-Jun-14 22:52N 50°21' W 001°51'613.7
2019-Jun-14 22:25N 50°19' W 001°60'1514.8
2019-Jun-14 21:25N 50°16' W 002°23'615.6
2019-Jun-14 21:00N 50°15' W 002°33'4304.1
2019-Jun-14 21:00N 50°12' W 002°30'1019.8 180 / 131012.1 15.910.513.0
2019-Jun-14 20:30N 50°14' W 002°45'816.1
2019-Jun-14 20:01N 50°11' W 002°57'816.5
2019-Jun-14 19:31N 50°10' W 003°09'816.4
2019-Jun-14 19:01N 50°05' W 003°20'816.6
2019-Jun-14 18:31N 49°60' W 003°30'816.7
2019-Jun-14 18:01N 49°54' W 003°40'816.6
2019-Jun-14 17:31N 49°49' W 003°50'816.6
2019-Jun-14 17:01N 49°44' W 003°60'816.6
2019-Jun-14 16:30N 49°38' W 004°10'916.8
2019-Jun-14 16:00N 49°33' W 004°20'5118.2
2019-Jun-14 13:12N 48°59' W 005°17'420.9
2019-Jun-14 13:00N 48°56' W 005°22'1020.8
2019-Jun-14 12:30N 48°49' W 005°34'15620.7
2019-Jun-14 05:00N 46°30' W 007°18'12120.2 230 / 81012.727.0 14.212.017.0
2019-Jun-13 23:00N 44°42' W 008°36'4019.9 280 / 101014.5 14.2 8.715.0
2019-Jun-13 21:00N 44°06' W 009°00'10318.2 310 / 71014.8 15.1 8.916.0
2019-Jun-13 15:19N 42°23' W 009°07'618.2
2019-Jun-13 14:58N 42°19' W 008°60'816.4
2019-Jun-13 14:30N 42°14' W 008°52'611.6
2019-Jun-13 14:01N 42°15' W 008°44'0 0.0
2019-Jun-13 05:48N 42°15' W 008°44'1 3.3
2019-Jun-13 05:30N 42°14' W 008°45'510.3
2019-Jun-13 05:00N 42°12' W 008°51'611.1
2019-Jun-13 04:30N 42°08' W 008°57'510.9
2019-Jun-13 04:00N 42°04' W 009°01'4264.3
2019-Jun-13 04:00N 42°00' W 009°00'7414.8 330 / 151013.210.8 13.7 7.917.0
2019-Jun-12 23:00N 40°48' W 009°24'5618.6 320 / 281014.6 14.8 9.416.0
2019-Jun-12 20:00N 39°54' W 009°42'3318.8 320 / 261014.9 15.7 9.118.0
2019-Jun-12 18:13N 39°22' W 009°53'417.6
2019-Jun-12 17:59N 39°18' W 009°53'817.6
2019-Jun-12 17:30N 39°09' W 009°52'917.1
2019-Jun-12 17:00N 39°01' W 009°52'917.2
2019-Jun-12 16:30N 38°52' W 009°52'917.0
2019-Jun-12 16:01N 38°44' W 009°52'815.5
2019-Jun-12 15:30N 38°37' W 009°47'917.7
2019-Jun-12 15:01N 38°35' W 009°36'7408.1
2019-Jun-12 15:00N 38°30' W 009°30'715.4 340 / 341012.4 18.210.018.0
2019-Jun-12 14:30N 38°36' W 009°24'816.4
2019-Jun-12 14:01N 38°41' W 009°16'612.2
2019-Jun-12 13:31N 38°42' W 009°09'1 1.8
2019-Jun-12 13:00N 38°42' W 009°08'0 0.0
2019-Jun-12 12:30N 38°42' W 009°08'0 0.0
2019-Jun-12 12:00N 38°42' W 009°08'0 0.0
2019-Jun-12 11:30N 38°42' W 009°08'0 0.0
2019-Jun-12 11:00N 38°42' W 009°08'0 0.0
2019-Jun-12 10:30N 38°42' W 009°08'0 0.0
2019-Jun-12 10:00N 38°42' W 009°08'0 0.0
2019-Jun-12 09:30N 38°42' W 009°08'0 0.0
2019-Jun-12 09:00N 38°42' W 009°08'0 0.0
2019-Jun-12 08:30N 38°42' W 009°08'0 0.0
2019-Jun-12 08:00N 38°42' W 009°08'0 0.0
2019-Jun-12 07:30N 38°42' W 009°08'0 0.0
2019-Jun-12 07:00N 38°42' W 009°08'0 0.0
2019-Jun-12 06:30N 38°42' W 009°08'0 0.0
2019-Jun-12 06:00N 38°42' W 009°08'1132.3
2019-Jun-12 06:00N 38°42' W 009°06'1 2.9 010 / 61015.710.8 15.5 8.718.9
2019-Jun-12 05:30N 38°42' W 009°08'0 0.0
2019-Jun-12 05:00N 38°42' W 009°08'0 0.0
2019-Jun-12 04:30N 38°42' W 009°08'0 0.0
2019-Jun-12 04:00N 38°42' W 009°08'0 0.0
2019-Jun-12 03:30N 38°42' W 009°08'0 0.0
2019-Jun-12 03:00N 38°42' W 009°08'0 0.0
2019-Jun-12 02:00N 38°42' W 009°08'0 0.0
2019-Jun-12 01:30N 38°42' W 009°08'0 0.0
2019-Jun-12 01:00N 38°42' W 009°08'0 0.0
2019-Jun-12 00:30N 38°42' W 009°08'0 0.0
2019-Jun-12 00:00N 38°42' W 009°08'0 0.0
2019-Jun-11 23:30N 38°42' W 009°08'0 0.0
2019-Jun-11 23:00N 38°42' W 009°08'0 0.0
2019-Jun-11 22:30N 38°42' W 009°08'0 0.0
2019-Jun-11 22:00N 38°42' W 009°08'0 0.0
2019-Jun-11 21:30N 38°42' W 009°08'0 0.0
2019-Jun-11 21:00N 38°42' W 009°08'0 0.0
2019-Jun-11 20:30N 38°42' W 009°08'0 0.0
2019-Jun-11 20:00N 38°42' W 009°08'0 0.0
2019-Jun-11 19:27N 38°42' W 009°08'0 0.0
2019-Jun-11 19:00N 38°42' W 009°08'0 0.0
2019-Jun-11 18:30N 38°42' W 009°08'0 0.0
2019-Jun-11 18:00N 38°42' W 009°08'0 0.0
2019-Jun-11 17:27N 38°42' W 009°08'0 0.0
2019-Jun-11 17:00N 38°42' W 009°08'0 0.0
2019-Jun-11 16:30N 38°42' W 009°08'0 0.0
2019-Jun-11 16:00N 38°42' W 009°08'0 0.0
2019-Jun-11 15:30N 38°42' W 009°08'0 0.0
2019-Jun-11 15:00N 38°42' W 009°08'0 0.0
2019-Jun-11 14:27N 38°42' W 009°08'0 0.0
2019-Jun-11 14:00N 38°42' W 009°08'0 0.0
2019-Jun-11 13:30N 38°42' W 009°08'0 0.0
2019-Jun-11 13:00N 38°42' W 009°08'0 0.0
2019-Jun-11 12:30N 38°42' W 009°08'0 0.0
2019-Jun-11 12:00N 38°42' W 009°08'0 0.0
2019-Jun-11 11:30N 38°42' W 009°08'0 0.0
2019-Jun-11 11:00N 38°42' W 009°08'3 5.6
2019-Jun-11 10:30N 38°41' W 009°11'612.4
2019-Jun-11 10:00N 38°40' W 009°19'816.2
2019-Jun-11 09:30N 38°34' W 009°25'1020.5
2019-Jun-11 09:00N 38°24' W 009°25'1020.7
2019-Jun-11 08:30N 38°13' W 009°25'1021.0
2019-Jun-11 08:00N 38°03' W 009°24'1121.5
2019-Jun-11 07:30N 37°52' W 009°24'1122.2
2019-Jun-11 07:00N 37°41' W 009°23'7123.5
2019-Jun-11 04:00N 36°36' W 008°48'12362.2 350 / 301013.227.0 17.612.019.0
2019-Jun-11 03:57N 36°43' W 009°01'1421.6
2019-Jun-11 03:18N 36°39' W 008°44'821.7
2019-Jun-11 02:57N 36°36' W 008°35'1021.5
2019-Jun-11 02:30N 36°33' W 008°23'1121.6
2019-Jun-11 01:59N 36°29' W 008°11'1121.8
2019-Jun-11 01:30N 36°26' W 007°58'1121.7
2019-Jun-11 01:00N 36°23' W 007°45'1121.8
2019-Jun-11 00:30N 36°20' W 007°32'1121.1
2019-Jun-11 00:00N 36°17' W 007°20'156 7.4
2019-Jun-10 03:00N 36°30' W 004°06'5010.0 280 / 301014.727.0 18.812.419.0
2019-Jun-09 22:00N 36°18' W 003°06'5 4.8 250 / 381014.3 20.014.020.0
2019-Jun-09 21:00N 36°18' W 003°00'176 9.8 250 / 331014.5 20.314.520.0
2019-Jun-09 03:00N 38°00' E 000°00'6110.1 030 / 141016.810.8 19.214.619.0
2019-Jun-08 21:00N 39°00' E 000°12'1515.2 350 / 161020.8 18.614.318.0
2019-Jun-08 20:00N 39°12' E 000°00'1911.9 010 / 171020.9 18.713.820.0
2019-Jun-08 18:23N 39°26' W 000°17'2 3.9
2019-Jun-08 17:56N 39°28' W 000°18'0 0.0
2019-Jun-08 17:29N 39°28' W 000°18'0 0.0
2019-Jun-08 16:59N 39°28' W 000°18'0 0.0
2019-Jun-08 16:29N 39°28' W 000°18'0 0.0
2019-Jun-08 15:59N 39°28' W 000°18'0 0.0
2019-Jun-08 15:29N 39°28' W 000°18'0 0.0
2019-Jun-08 14:59N 39°28' W 000°18'0 0.0
2019-Jun-08 14:29N 39°28' W 000°18'0 0.0
2019-Jun-08 13:59N 39°28' W 000°18'0 0.0
2019-Jun-08 13:29N 39°28' W 000°18'0 0.0
2019-Jun-08 12:59N 39°28' W 000°18'0 0.0
2019-Jun-08 12:29N 39°28' W 000°18'0 0.0
2019-Jun-08 11:59N 39°28' W 000°18'0 0.0
2019-Jun-08 11:29N 39°28' W 000°18'0 0.0
2019-Jun-08 10:59N 39°28' W 000°18'0 0.0
2019-Jun-08 10:29N 39°28' W 000°18'0 0.0
2019-Jun-08 09:59N 39°28' W 000°18'0 0.0
2019-Jun-08 09:29N 39°28' W 000°18'0 0.0
2019-Jun-08 08:59N 39°28' W 000°18'0 0.0
2019-Jun-08 08:29N 39°28' W 000°18'0 0.0
2019-Jun-08 07:59N 39°28' W 000°18'0 0.0
2019-Jun-08 07:29N 39°28' W 000°18'0 0.0
2019-Jun-08 06:59N 39°28' W 000°18'0 0.0
2019-Jun-08 06:29N 39°28' W 000°18'0 0.0
2019-Jun-08 05:59N 39°28' W 000°18'0 0.0
2019-Jun-08 05:26N 39°28' W 000°18'0 0.0
2019-Jun-08 04:59N 39°28' W 000°18'1 1.1
2019-Jun-08 04:30N 39°27' W 000°18'3 5.8
2019-Jun-08 04:00N 39°27' W 000°14'815.3
2019-Jun-08 03:30N 39°33' W 000°06'1019.8
2019-Jun-08 03:00N 39°36' E 000°06'10616.6 030 / 141020.810.8 19.715.519.0
2019-Jun-07 20:38N 40°52' E 001°42'219.3
2019-Jun-07 20:30N 40°54' E 001°45'1019.1
2019-Jun-07 20:00N 41°01' E 001°53'193.4
2019-Jun-07 20:00N 41°00' E 001°54'1019.9 290 / 101017.2 21.016.018.0
2019-Jun-07 19:31N 41°08' E 002°02'918.4
2019-Jun-07 19:00N 41°14' E 002°10'611.9
2019-Jun-07 18:30N 41°20' E 002°10'1 2.1
2019-Jun-07 17:58N 41°21' E 002°11'0 0.0
2019-Jun-07 17:28N 41°21' E 002°11'0 0.0
2019-Jun-07 16:58N 41°21' E 002°11'0 0.0
2019-Jun-07 16:28N 41°21' E 002°11'0 0.0
2019-Jun-07 15:58N 41°21' E 002°11'0 0.0
2019-Jun-07 15:28N 41°21' E 002°11'0 0.0
2019-Jun-07 14:58N 41°21' E 002°11'0 0.0
2019-Jun-07 14:25N 41°21' E 002°11'0 0.0
2019-Jun-07 13:58N 41°21' E 002°11'0 0.0
2019-Jun-07 13:28N 41°21' E 002°11'0 0.0
2019-Jun-07 12:58N 41°21' E 002°11'0 0.0
2019-Jun-07 12:28N 41°21' E 002°11'0 0.0
2019-Jun-07 11:58N 41°21' E 002°11'0 0.0
2019-Jun-07 11:28N 41°21' E 002°11'0 0.0
2019-Jun-07 10:58N 41°21' E 002°11'0 0.0
2019-Jun-07 10:28N 41°21' E 002°11'0 0.0
2019-Jun-07 09:58N 41°21' E 002°11'0 0.0
2019-Jun-07 09:28N 41°21' E 002°11'0 0.0
2019-Jun-07 08:58N 41°21' E 002°11'0 0.0
2019-Jun-07 08:28N 41°21' E 002°11'0 0.0
2019-Jun-07 07:58N 41°21' E 002°11'0 0.0
2019-Jun-07 07:28N 41°21' E 002°11'0 0.0
2019-Jun-07 06:58N 41°21' E 002°11'1 2.1
2019-Jun-07 06:30N 41°20' E 002°10'4 8.6
2019-Jun-07 06:01N 41°16' E 002°12'612.2
2019-Jun-07 05:31N 41°18' E 002°20'917.7
2019-Jun-07 05:01N 41°21' E 002°30'918.6
2019-Jun-07 04:31N 41°25' E 002°42'2516.6
2019-Jun-07 03:00N 41°36' E 003°12'10317.1 180 / 101012.610.8 17.215.017.0
2019-Jun-06 21:00N 42°18' E 005°18'   150 / 221015.5 16.813.617.0

Dump ship's entire track history